createdAt,value
2023-03-17T03:59:10.813Z,20.10
2023-03-17T04:00:10.760Z,20.08
2023-03-17T04:01:10.752Z,20.15
2023-03-17T04:02:10.753Z,20.18
2023-03-17T04:03:10.834Z,20.20
2023-03-17T04:04:10.720Z,20.19
2023-03-17T04:05:10.711Z,20.20
2023-03-17T04:06:10.719Z,20.18
2023-03-17T04:07:10.721Z,20.18
2023-03-17T04:08:10.712Z,20.10
2023-03-17T04:09:10.678Z,20.18
2023-03-17T04:10:10.685Z,20.11
2023-03-17T04:11:10.686Z,20.18
2023-03-17T04:12:10.653Z,20.19
2023-03-17T04:13:10.659Z,20.19
2023-03-17T04:14:10.664Z,20.16
2023-03-17T04:15:10.685Z,20.16
2023-03-17T04:16:10.637Z,20.26
2023-03-17T04:17:10.671Z,20.22
2023-03-17T04:18:10.649Z,20.30
2023-03-17T04:19:10.678Z,20.25
2023-03-17T04:20:10.622Z,20.27
2023-03-17T04:21:10.624Z,20.20
2023-03-17T04:22:10.613Z,20.23
2023-03-17T04:23:10.632Z,20.23
2023-03-17T04:24:10.604Z,20.34
2023-03-17T04:25:10.585Z,20.35
2023-03-17T04:26:10.619Z,20.38
2023-03-17T04:27:10.589Z,20.38
2023-03-17T04:28:10.605Z,20.37
2023-03-17T04:29:10.587Z,20.42
2023-03-17T04:30:10.571Z,20.38
2023-03-17T04:31:10.623Z,20.38
2023-03-17T04:32:10.577Z,20.46
2023-03-17T04:33:10.629Z,20.38
2023-03-17T04:34:10.554Z,20.42
2023-03-17T04:35:10.569Z,20.49
2023-03-17T04:36:10.563Z,20.54
2023-03-17T04:37:10.561Z,20.49
2023-03-17T04:38:10.562Z,20.49
2023-03-17T04:39:10.569Z,20.58
2023-03-17T04:40:10.540Z,20.61
2023-03-17T04:41:10.537Z,20.58
2023-03-17T04:42:10.512Z,20.57
2023-03-17T04:43:10.529Z,20.57
2023-03-17T04:44:10.519Z,20.57
2023-03-17T04:45:10.502Z,20.57
2023-03-17T04:46:10.581Z,20.60
2023-03-17T04:47:10.541Z,20.60
2023-03-17T04:48:10.503Z,20.60
2023-03-17T04:49:10.495Z,20.60
2023-03-17T04:50:10.509Z,20.68
2023-03-17T04:51:11.776Z,20.63
2023-03-17T04:52:10.521Z,20.61
2023-03-17T04:53:10.536Z,20.63
2023-03-17T04:54:10.464Z,20.61
2023-03-17T04:55:10.488Z,20.68
2023-03-17T04:56:10.451Z,20.61
2023-03-17T04:57:10.447Z,20.64
2023-03-17T04:58:15.446Z,20.71
2023-03-17T04:59:10.452Z,20.67
2023-03-17T05:00:10.461Z,20.66
2023-03-17T05:01:10.484Z,20.66
2023-03-17T05:02:10.532Z,20.72
2023-03-17T05:03:24.088Z,20.75
2023-03-17T05:04:12.762Z,20.66
2023-03-17T05:05:10.419Z,20.75
2023-03-17T05:06:10.430Z,20.66
2023-03-17T05:07:10.403Z,20.78
2023-03-17T05:08:10.420Z,20.75
2023-03-17T05:09:10.409Z,20.71
2023-03-17T05:10:10.419Z,20.76
2023-03-17T05:11:10.393Z,20.76
2023-03-17T05:12:10.390Z,20.76
2023-03-17T05:13:10.405Z,20.67
2023-03-17T05:14:10.400Z,20.78
2023-03-17T05:15:10.383Z,20.72
2023-03-17T05:16:10.402Z,20.67
2023-03-17T05:17:10.358Z,20.68
2023-03-17T05:18:10.366Z,20.72
2023-03-17T05:19:10.383Z,20.74
2023-03-17T05:20:10.387Z,20.79
2023-03-17T05:21:10.361Z,20.81
2023-03-17T05:22:10.349Z,20.78
2023-03-17T05:23:10.354Z,20.81
2023-03-17T05:24:10.355Z,20.79
2023-03-17T05:25:10.365Z,20.78
2023-03-17T05:26:10.321Z,20.76
2023-03-17T05:27:10.329Z,20.85
2023-03-17T05:28:10.341Z,20.76
2023-03-17T05:29:10.312Z,20.88
2023-03-17T05:30:10.362Z,20.83
2023-03-17T05:31:11.021Z,20.79
2023-03-17T05:32:10.294Z,20.85
2023-03-17T05:33:10.329Z,20.79
2023-03-17T05:34:10.287Z,20.83
2023-03-17T05:35:10.334Z,20.82
2023-03-17T05:36:10.290Z,20.78
2023-03-17T05:37:10.290Z,20.88
2023-03-17T05:38:10.290Z,20.82
2023-03-17T05:39:10.300Z,20.79
2023-03-17T05:40:10.249Z,20.83
2023-03-17T05:41:10.280Z,20.83
2023-03-17T05:42:10.282Z,20.76
2023-03-17T05:43:10.249Z,20.83
2023-03-17T05:44:10.266Z,20.88
2023-03-17T05:45:10.237Z,20.81
2023-03-17T05:46:10.279Z,20.85
2023-03-17T05:47:10.259Z,20.86
2023-03-17T05:48:10.252Z,20.86
2023-03-17T05:49:10.269Z,20.91
2023-03-17T05:50:10.265Z,20.83
2023-03-17T05:51:10.253Z,20.90
2023-03-17T05:52:10.216Z,20.97
2023-03-17T05:53:10.227Z,20.94
2023-03-17T05:54:10.207Z,20.93
2023-03-17T05:55:10.219Z,20.94
2023-03-17T05:56:10.206Z,20.88
2023-03-17T05:57:10.189Z,20.91
2023-03-17T05:58:10.197Z,20.88
2023-03-17T05:59:10.208Z,20.85
2023-03-17T06:00:12.630Z,20.90
2023-03-17T06:01:10.212Z,20.91
2023-03-17T06:02:10.191Z,20.91
2023-03-17T06:03:10.219Z,20.98
2023-03-17T06:04:10.165Z,20.98
2023-03-17T06:05:10.184Z,20.97
2023-03-17T06:06:10.172Z,21.06
2023-03-17T06:07:10.156Z,21.01
2023-03-17T06:08:10.144Z,20.94
2023-03-17T06:09:10.140Z,21.01
2023-03-17T06:10:11.087Z,20.97
2023-03-17T06:11:10.161Z,20.98
2023-03-17T06:12:10.136Z,20.96
2023-03-17T06:13:10.151Z,20.94
2023-03-17T06:14:10.133Z,20.98
2023-03-17T06:15:10.130Z,21.04
2023-03-17T06:16:10.235Z,21.03
2023-03-17T06:17:10.109Z,21.01
2023-03-17T06:18:10.095Z,21.04
2023-03-17T06:19:10.104Z,21.04
2023-03-17T06:20:10.121Z,21.06
2023-03-17T06:21:10.095Z,21.03
2023-03-17T06:22:10.119Z,21.00
2023-03-17T06:23:10.101Z,21.01
2023-03-17T06:24:10.097Z,21.04
2023-03-17T06:25:10.107Z,20.97
2023-03-17T06:26:10.065Z,21.08
2023-03-17T06:27:10.067Z,21.01
2023-03-17T06:28:10.056Z,21.08
2023-03-17T06:29:10.092Z,21.15
2023-03-17T06:30:10.080Z,21.15
2023-03-17T06:31:10.127Z,21.19
2023-03-17T06:32:20.292Z,21.21
2023-03-17T06:33:10.189Z,21.19
2023-03-17T06:34:10.044Z,21.19
2023-03-17T06:35:10.027Z,21.21
2023-03-17T06:36:10.079Z,21.28
2023-03-17T06:37:10.044Z,21.25
2023-03-17T06:38:10.019Z,21.22
2023-03-17T06:42:08.012Z,21.37
2023-03-17T06:43:07.958Z,21.36
2023-03-17T06:44:07.970Z,21.38
2023-03-17T06:46:08.123Z,21.49
2023-03-17T06:47:08.051Z,21.46
2023-03-17T06:48:07.947Z,21.49
2023-03-17T06:49:07.950Z,21.56
2023-03-17T06:50:08.033Z,21.61
2023-03-17T06:51:08.012Z,21.62
2023-03-17T06:52:07.923Z,21.55
2023-03-17T06:53:07.915Z,21.64
2023-03-17T06:54:07.923Z,21.61
2023-03-17T06:55:07.915Z,21.62
2023-03-17T06:56:12.552Z,21.71
2023-03-17T06:57:07.907Z,21.76
2023-03-17T06:58:07.912Z,21.73
2023-03-17T06:59:07.928Z,21.78
2023-03-17T07:00:07.912Z,21.86
2023-03-17T07:01:08.005Z,21.90
2023-03-17T07:02:08.008Z,21.90
2023-03-17T07:03:07.893Z,21.90
2023-03-17T07:04:07.977Z,21.92
2023-03-17T07:05:07.888Z,21.92
2023-03-17T07:06:07.983Z,21.94
2023-03-17T07:07:07.881Z,21.93
2023-03-17T07:08:07.870Z,22.07
2023-03-17T07:09:07.872Z,22.07
2023-03-17T07:11:07.871Z,22.08
2023-03-17T07:12:07.856Z,22.08
2023-03-17T07:13:07.886Z,22.14
2023-03-17T07:14:07.981Z,22.22
2023-03-17T07:15:07.856Z,22.22
2023-03-17T07:16:07.997Z,22.07
2023-03-17T07:17:07.838Z,22.23
2023-03-17T07:18:07.830Z,22.23
2023-03-17T07:19:07.850Z,22.16
2023-03-17T07:20:07.887Z,22.24
2023-03-17T07:21:07.840Z,22.22
2023-03-17T07:22:07.854Z,22.29
2023-03-17T07:23:07.820Z,22.33
2023-03-17T07:24:07.857Z,22.38
2023-03-17T07:25:07.990Z,22.36
2023-03-17T07:26:07.841Z,22.39
2023-03-17T07:27:07.817Z,22.41
2023-03-17T07:28:07.800Z,22.46
2023-03-17T07:29:07.796Z,22.46
2023-03-17T07:30:07.972Z,22.45
2023-03-17T07:31:07.895Z,22.46
2023-03-17T07:32:07.823Z,22.49
2023-03-17T07:33:07.977Z,22.45
2023-03-17T07:34:07.807Z,22.60
2023-03-17T07:35:07.797Z,22.60
2023-03-17T07:36:07.889Z,22.61
2023-03-17T07:37:07.812Z,22.55
2023-03-17T07:38:07.766Z,22.64
2023-03-17T07:39:10.138Z,22.63
2023-03-17T07:40:07.767Z,22.67
2023-03-17T07:41:07.797Z,22.60
2023-03-17T07:42:07.834Z,22.61
2023-03-17T07:43:07.773Z,22.59
2023-03-17T07:44:07.761Z,22.64
2023-03-17T07:45:07.761Z,22.69
2023-03-17T07:46:07.816Z,22.70
2023-03-17T07:47:07.781Z,22.76
2023-03-17T07:48:07.758Z,22.76
2023-03-17T07:49:07.767Z,22.75
2023-03-17T07:50:07.734Z,22.76
2023-03-17T07:51:07.804Z,22.75
2023-03-17T07:52:07.820Z,22.70
2023-03-17T07:53:07.734Z,22.67
2023-03-17T07:54:07.737Z,22.82
2023-03-17T07:55:07.739Z,22.81
2023-03-17T07:56:07.734Z,22.78
2023-03-17T07:57:07.722Z,22.76
2023-03-17T07:58:07.816Z,22.86
2023-03-17T07:59:07.760Z,22.82
2023-03-17T08:00:07.739Z,22.82
2023-03-17T08:01:07.725Z,22.85
2023-03-17T08:02:07.845Z,22.88
2023-03-17T08:03:10.578Z,22.88
2023-03-17T08:04:07.803Z,22.94
2023-03-17T08:05:07.725Z,22.96
2023-03-17T08:06:07.707Z,22.97
2023-03-17T08:07:07.720Z,23.00
2023-03-17T08:08:07.702Z,23.04
2023-03-17T08:09:07.781Z,23.07
2023-03-17T08:10:07.682Z,23.06
2023-03-17T08:11:07.748Z,23.06
2023-03-17T08:12:07.740Z,23.04
2023-03-17T08:13:07.728Z,23.04
2023-03-17T08:15:07.682Z,23.12
2023-03-17T08:16:07.826Z,23.22
2023-03-17T08:17:08.108Z,23.19
2023-03-17T08:18:07.721Z,23.18
2023-03-17T08:19:07.728Z,23.24
2023-03-17T08:20:07.688Z,23.24
2023-03-17T08:21:07.714Z,23.25
2023-03-17T08:22:07.693Z,23.24
2023-03-17T08:23:07.657Z,23.28
2023-03-17T08:24:07.689Z,23.29
2023-03-17T08:25:07.695Z,23.41
2023-03-17T08:26:07.672Z,23.40
2023-03-17T08:27:07.679Z,23.35
2023-03-17T08:28:07.675Z,23.41
2023-03-17T08:29:07.683Z,23.40
2023-03-17T08:30:07.732Z,23.42
2023-03-17T08:31:09.223Z,23.38
2023-03-17T08:32:07.924Z,23.42
2023-03-17T08:33:08.238Z,23.48
2023-03-17T08:34:07.638Z,23.41
2023-03-17T08:35:07.638Z,23.52
2023-03-17T08:36:07.694Z,23.47
2023-03-17T08:37:10.168Z,23.56
2023-03-17T08:38:09.182Z,23.62
2023-03-17T08:39:07.647Z,23.55
2023-03-17T08:40:07.613Z,23.63
2023-03-17T08:41:07.655Z,23.62
2023-03-17T08:42:07.609Z,23.62
2023-03-17T08:43:08.027Z,23.71
2023-03-17T08:44:07.629Z,23.70
2023-03-17T08:45:07.636Z,23.72
2023-03-17T08:46:07.795Z,23.71
2023-03-17T08:47:07.603Z,23.74
2023-03-17T08:48:07.600Z,23.82
2023-03-17T08:49:07.608Z,23.82
2023-03-17T08:50:07.841Z,23.84
2023-03-17T08:51:07.608Z,23.87
2023-03-17T08:52:07.773Z,23.93
2023-03-17T08:53:07.676Z,23.90
2023-03-17T08:54:07.702Z,23.96
2023-03-17T08:56:40.142Z,23.93
2023-03-17T08:57:40.170Z,23.96
2023-03-17T08:58:40.123Z,24.03
2023-03-17T08:59:40.160Z,24.07
2023-03-17T09:00:40.132Z,24.04
2023-03-17T09:01:40.320Z,24.12
2023-03-17T09:02:40.189Z,24.08
2023-03-17T09:03:40.118Z,24.09
2023-03-17T09:04:40.300Z,24.18
2023-03-17T09:05:40.134Z,24.24
2023-03-17T09:07:40.142Z,24.18
2023-03-17T09:08:40.122Z,24.12
2023-03-17T09:09:40.140Z,24.26
2023-03-17T09:10:41.172Z,24.18
2023-03-17T09:11:40.113Z,24.29
2023-03-17T09:12:40.168Z,24.24
2023-03-17T09:13:40.310Z,24.29
2023-03-17T09:14:43.711Z,24.29
2023-03-17T09:15:40.339Z,24.34
2023-03-17T09:16:40.181Z,24.30
2023-03-17T09:17:40.092Z,24.32
2023-03-17T09:18:40.100Z,24.27
2023-03-17T09:19:40.108Z,24.40
2023-03-17T09:20:40.122Z,24.42
2023-03-17T09:21:40.134Z,24.40
2023-03-17T09:22:40.101Z,24.49
2023-03-17T09:23:40.080Z,24.46
2023-03-17T09:24:40.082Z,24.49
2023-03-17T09:25:40.117Z,24.55
2023-03-17T09:26:40.094Z,24.59
2023-03-17T09:27:40.152Z,24.49
2023-03-17T09:28:40.147Z,24.61
2023-03-17T09:29:40.105Z,24.64
2023-03-17T09:30:40.079Z,24.58
2023-03-17T09:31:40.159Z,24.58
2023-03-17T09:32:40.132Z,24.63
2023-03-17T09:33:40.067Z,24.77
2023-03-17T09:34:40.132Z,24.74
2023-03-17T09:35:40.324Z,24.74
2023-03-17T09:36:40.141Z,24.70
2023-03-17T09:37:40.080Z,24.75
2023-03-17T09:38:40.100Z,24.69
2023-03-17T09:39:40.073Z,24.80
2023-03-17T09:40:40.087Z,24.83
2023-03-17T09:41:40.087Z,24.71
2023-03-17T09:42:40.239Z,24.82
2023-03-17T09:43:40.071Z,24.83
2023-03-17T09:44:40.076Z,24.93
2023-03-17T09:45:42.984Z,24.96
2023-03-17T09:46:40.127Z,24.89
2023-03-17T09:47:42.275Z,25.00
2023-03-17T09:48:40.064Z,25.02
2023-03-17T09:49:40.104Z,25.02
2023-03-17T09:50:40.054Z,25.00
2023-03-17T09:51:40.072Z,25.04
2023-03-17T09:52:40.074Z,25.09
2023-03-17T09:53:40.101Z,25.12
2023-03-17T09:54:40.082Z,25.19
2023-03-17T09:55:40.087Z,25.19
2023-03-17T09:56:40.073Z,25.20
2023-03-17T09:57:40.214Z,25.14
2023-03-17T09:58:40.074Z,25.23
2023-03-17T09:59:40.058Z,25.24
2023-03-17T10:00:40.040Z,25.30
2023-03-17T10:01:40.103Z,25.27
2023-03-17T10:13:31.019Z,25.41
2023-03-17T10:14:30.968Z,25.45
2023-03-17T10:15:31.288Z,25.54
2023-03-17T10:16:31.039Z,25.60
2023-03-17T10:17:30.963Z,25.57
2023-03-17T10:18:31.000Z,25.64
2023-03-17T10:19:30.944Z,25.60
2023-03-17T10:20:31.011Z,25.54
2023-03-17T10:21:30.960Z,25.62
2023-03-17T10:22:30.937Z,25.63
2023-03-17T10:23:31.006Z,25.67
2023-03-17T10:24:30.950Z,25.76
2023-03-17T10:25:31.488Z,25.75
2023-03-17T10:26:30.969Z,25.78
2023-03-17T10:27:30.975Z,25.82
2023-03-17T10:28:31.096Z,25.81
2023-03-17T10:29:31.040Z,25.82
2023-03-17T10:30:31.157Z,25.88
2023-03-17T10:31:31.115Z,25.84
2023-03-17T10:32:31.035Z,25.86
2023-03-17T10:33:30.974Z,25.94
2023-03-17T10:34:30.929Z,25.86
2023-03-17T10:35:31.190Z,25.96
2023-03-17T10:36:30.935Z,26.01
2023-03-17T10:37:31.028Z,26.00
2023-03-17T10:38:30.961Z,25.97
2023-03-17T10:39:32.858Z,25.99
2023-03-17T10:40:31.708Z,26.03
2023-03-17T10:41:30.970Z,26.11
2023-03-17T10:42:30.954Z,26.12
2023-03-17T10:43:30.987Z,26.09
2023-03-17T10:44:30.934Z,26.17
2023-03-17T10:45:31.017Z,26.11
2023-03-17T10:46:31.265Z,26.11
2023-03-17T10:47:31.522Z,26.23
2023-03-17T10:48:30.967Z,26.22
2023-03-17T10:49:30.943Z,26.27
2023-03-17T10:50:31.345Z,26.31
2023-03-17T10:51:30.953Z,26.22
2023-03-17T10:52:30.959Z,26.23
2023-03-17T10:53:30.958Z,26.35
2023-03-17T10:54:30.943Z,26.34
2023-03-17T10:55:30.958Z,26.35
2023-03-17T10:56:30.993Z,26.44
2023-03-17T10:57:30.972Z,26.47
2023-03-17T10:58:31.023Z,26.30
2023-03-17T11:00:31.226Z,26.38
2023-03-17T11:01:31.121Z,26.41
2023-03-17T11:03:30.994Z,26.50
2023-03-17T11:04:30.969Z,26.52
2023-03-17T11:05:30.949Z,26.50
2023-03-17T11:06:30.970Z,26.56
2023-03-17T11:07:30.960Z,26.59
2023-03-17T11:08:30.955Z,26.57
2023-03-17T11:09:30.959Z,26.61
2023-03-17T11:10:31.130Z,26.63
2023-03-17T11:11:30.962Z,26.75
2023-03-17T11:12:30.985Z,26.74
2023-03-17T11:13:31.002Z,26.75
2023-03-17T11:14:30.997Z,26.78
2023-03-17T11:15:30.980Z,26.84
2023-03-17T11:16:31.021Z,26.76
2023-03-17T11:17:31.168Z,26.81
2023-03-17T11:18:32.116Z,26.93
2023-03-17T11:19:30.981Z,26.96
2023-03-17T11:20:31.293Z,27.01
2023-03-17T11:21:30.988Z,27.00
2023-03-17T11:22:30.987Z,27.11
2023-03-17T11:23:30.996Z,27.13
2023-03-17T11:24:32.139Z,27.21
2023-03-17T11:25:30.975Z,27.36
2023-03-17T11:26:30.978Z,27.28
2023-03-17T11:27:31.018Z,27.38
2023-03-17T11:28:30.989Z,27.46
2023-03-17T11:29:30.991Z,27.52
2023-03-17T11:30:31.322Z,27.49
2023-03-17T11:31:31.109Z,27.62
2023-03-17T11:32:31.703Z,27.65
2023-03-17T11:33:32.142Z,27.62
2023-03-17T11:34:31.058Z,27.69
2023-03-17T11:35:31.091Z,27.76
2023-03-17T11:36:31.011Z,27.87
2023-03-17T11:37:31.037Z,27.98
2023-03-17T11:38:31.001Z,27.98
2023-03-17T11:39:31.036Z,27.98
2023-03-17T11:40:31.272Z,28.01
2023-03-17T11:41:31.038Z,28.06
2023-03-17T11:42:31.030Z,28.02
2023-03-17T11:43:31.024Z,28.17
2023-03-17T11:44:31.018Z,28.23
2023-03-17T11:45:31.002Z,28.30
2023-03-17T11:46:31.179Z,28.26
2023-03-17T11:47:31.031Z,28.27
2023-03-17T11:48:31.025Z,28.31
2023-03-17T11:49:31.044Z,28.36
2023-03-17T11:50:31.364Z,28.38
2023-03-17T11:51:31.070Z,28.45
2023-03-17T11:52:31.061Z,28.49
2023-03-17T11:53:31.069Z,28.57
2023-03-17T11:54:31.074Z,28.58
2023-03-17T11:55:31.096Z,28.65
2023-03-17T11:56:31.123Z,28.85
2023-03-17T11:57:31.099Z,28.80
2023-03-17T11:58:31.062Z,28.82
2023-03-17T11:59:31.094Z,28.85
2023-03-17T12:00:31.373Z,28.97
2023-03-17T12:01:31.110Z,28.97
2023-03-17T12:02:31.076Z,28.97
2023-03-17T12:03:31.157Z,29.03
2023-03-17T12:04:31.110Z,29.06
2023-03-17T12:05:31.171Z,29.20
2023-03-17T12:06:31.057Z,29.20
2023-03-17T12:07:31.079Z,29.29
2023-03-17T12:08:31.086Z,29.32
2023-03-17T12:09:31.081Z,29.29
2023-03-17T12:10:31.349Z,29.36
2023-03-17T12:11:31.073Z,29.42
2023-03-17T12:12:31.111Z,29.43
2023-03-17T12:13:31.178Z,29.48
2023-03-17T12:14:31.251Z,29.52
2023-03-17T12:15:31.149Z,29.50
2023-03-17T12:16:31.254Z,29.48
2023-03-17T12:17:32.813Z,29.52
2023-03-17T12:18:31.109Z,29.55
2023-03-17T12:19:31.245Z,29.54
2023-03-17T12:20:31.332Z,29.66
2023-03-17T12:21:31.153Z,29.63
2023-03-17T12:22:31.148Z,29.60
2023-03-17T12:23:31.115Z,29.66
2023-03-17T12:24:31.125Z,29.79
2023-03-17T12:25:31.122Z,29.77
2023-03-17T12:26:31.140Z,29.89
2023-03-17T12:27:31.137Z,29.92
2023-03-17T12:28:31.123Z,29.91
2023-03-17T12:29:31.134Z,29.88
2023-03-17T12:30:31.361Z,30.00
2023-03-17T12:31:31.234Z,29.98
2023-03-17T12:32:31.162Z,30.03
2023-03-17T12:33:31.154Z,30.02
2023-03-17T12:34:31.154Z,29.97
2023-03-17T12:35:31.326Z,29.95
2023-03-17T12:36:31.163Z,29.87
2023-03-17T12:37:31.215Z,29.97
2023-03-17T12:38:31.160Z,29.81
2023-03-17T12:39:31.151Z,29.77
2023-03-17T12:40:31.516Z,29.84
2023-03-17T12:41:31.155Z,29.73
2023-03-17T12:42:31.195Z,29.77
2023-03-17T12:43:31.167Z,29.77
2023-03-17T12:44:31.160Z,29.81
2023-03-17T12:45:31.379Z,29.89
2023-03-17T12:46:31.249Z,29.85
2023-03-17T12:47:31.190Z,29.77
2023-03-17T12:48:31.169Z,29.75
2023-03-17T12:49:31.179Z,29.81
2023-03-17T12:50:31.203Z,29.63
2023-03-17T12:51:31.203Z,29.63
2023-03-17T12:52:31.448Z,29.61
2023-03-17T12:53:31.219Z,29.50
2023-03-17T12:54:31.215Z,29.54
2023-03-17T12:55:31.457Z,29.50
2023-03-17T12:56:31.218Z,29.39
2023-03-17T12:57:31.253Z,29.40
2023-03-17T12:58:31.189Z,29.40
2023-03-17T12:59:31.230Z,29.42
2023-03-17T13:00:31.216Z,29.38
2023-03-17T13:01:31.222Z,29.39
2023-03-17T13:05:04.251Z,29.54
2023-03-17T13:06:04.278Z,29.48
2023-03-17T13:07:04.248Z,29.48
2023-03-17T13:08:04.253Z,29.42
2023-03-17T13:09:04.250Z,29.40
2023-03-17T13:10:04.240Z,29.35
2023-03-17T13:11:04.242Z,29.29
2023-03-17T13:12:04.242Z,29.21
2023-03-17T13:13:04.254Z,29.06
2023-03-17T13:14:04.261Z,29.05
2023-03-17T13:15:04.252Z,29.10
2023-03-17T13:16:04.322Z,28.97
2023-03-17T13:17:04.257Z,28.95
2023-03-17T13:18:04.254Z,28.98
2023-03-17T13:19:04.267Z,28.94
2023-03-17T13:20:04.275Z,28.92
2023-03-17T13:21:04.255Z,28.83
2023-03-17T13:22:04.270Z,28.82
2023-03-17T13:23:04.311Z,28.85
2023-03-17T13:24:04.278Z,28.82
2023-03-17T13:25:04.305Z,28.85
2023-03-17T13:26:04.292Z,28.82
2023-03-17T13:27:04.297Z,28.72
2023-03-17T13:28:04.339Z,28.79
2023-03-17T13:29:04.272Z,28.70
2023-03-17T13:30:04.269Z,28.60
2023-03-17T13:31:04.386Z,28.63
2023-03-17T13:32:04.285Z,28.61
2023-03-17T13:33:04.421Z,28.51
2023-03-17T13:34:04.314Z,28.53
2023-03-17T13:35:04.301Z,28.55
2023-03-17T13:36:04.324Z,28.45
2023-03-17T13:37:04.325Z,28.39
2023-03-17T13:38:04.287Z,28.35
2023-03-17T13:39:18.669Z,28.27
2023-03-17T13:40:04.295Z,28.17
2023-03-17T13:41:04.321Z,28.23
2023-03-17T13:42:15.590Z,28.08
2023-03-17T13:43:04.296Z,28.01
2023-03-17T13:44:04.308Z,28.06
2023-03-17T13:45:04.318Z,28.03
2023-03-17T13:46:04.337Z,27.91
2023-03-17T13:47:04.437Z,27.87
2023-03-17T13:48:04.313Z,27.80
2023-03-17T13:49:04.347Z,27.71
2023-03-17T13:50:04.297Z,27.76
2023-03-17T13:51:04.326Z,27.64
2023-03-17T13:52:04.328Z,27.57
2023-03-17T13:53:04.369Z,27.51
2023-03-17T13:54:04.339Z,27.65
2023-03-17T13:55:04.329Z,27.59
2023-03-17T13:56:04.379Z,27.57
2023-03-17T13:57:04.322Z,27.46
2023-03-17T13:58:04.305Z,27.53
2023-03-17T13:59:04.310Z,27.49
2023-03-17T14:00:04.316Z,27.53
2023-03-17T14:01:04.412Z,27.43
2023-03-17T14:02:04.327Z,27.45
2023-03-17T14:03:04.332Z,27.51
2023-03-17T14:04:04.398Z,27.43
2023-03-17T14:05:04.344Z,27.37
2023-03-17T14:06:04.334Z,27.36
2023-03-17T14:07:04.401Z,27.34
2023-03-17T14:08:04.311Z,27.21
2023-03-17T14:09:04.348Z,27.15
2023-03-17T14:10:04.333Z,27.08
2023-03-17T14:11:04.336Z,27.00
2023-03-17T14:12:04.518Z,26.90
2023-03-17T14:13:04.348Z,26.81
2023-03-17T14:14:04.328Z,26.82
2023-03-17T14:15:06.491Z,26.76
2023-03-17T14:16:04.428Z,26.60
2023-03-17T14:17:04.333Z,26.60
2023-03-17T14:18:04.381Z,26.61
2023-03-17T14:19:04.320Z,26.49
2023-03-17T14:20:04.341Z,26.52
2023-03-17T14:21:07.485Z,26.50
2023-03-17T14:22:04.595Z,26.49
2023-03-17T14:23:04.362Z,26.54
2023-03-17T14:24:04.369Z,26.50
2023-03-17T14:25:04.364Z,26.59
2023-03-17T14:26:04.326Z,26.74
2023-03-17T14:27:04.338Z,26.74
2023-03-17T14:28:04.335Z,26.74
2023-03-17T14:29:04.358Z,26.61
2023-03-17T14:30:04.312Z,26.71
2023-03-17T14:31:04.334Z,26.64
2023-03-17T14:32:04.403Z,26.69
2023-03-17T14:33:04.421Z,26.71
2023-03-17T14:34:04.358Z,26.64
2023-03-17T14:35:04.325Z,26.74
2023-03-17T14:36:04.414Z,26.69
2023-03-17T14:37:04.347Z,26.64
2023-03-17T14:38:04.358Z,26.69
2023-03-17T14:39:04.350Z,26.57
2023-03-17T14:40:04.314Z,26.52
2023-03-17T14:41:04.356Z,26.53
2023-03-17T14:42:04.419Z,26.52
2023-03-17T14:43:04.336Z,26.42
2023-03-17T14:44:04.339Z,26.41
2023-03-17T14:45:04.331Z,26.31
2023-03-17T14:46:04.435Z,26.41
2023-03-17T14:47:04.316Z,26.41
2023-03-17T14:48:04.319Z,26.38
2023-03-17T14:49:04.387Z,26.34
2023-03-17T14:50:04.328Z,26.30
2023-03-17T14:51:04.337Z,26.34
2023-03-17T14:52:04.333Z,26.34
2023-03-17T14:53:04.356Z,26.31
2023-03-17T14:54:04.342Z,26.30
2023-03-17T14:55:04.350Z,26.35
2023-03-17T14:56:04.334Z,26.30
2023-03-17T14:57:04.328Z,26.32
2023-03-17T14:58:04.328Z,26.31
2023-03-17T14:59:04.332Z,26.34
2023-03-17T15:00:04.330Z,26.30
2023-03-17T15:01:04.430Z,26.32
2023-03-17T15:02:04.384Z,26.32
2023-03-17T15:03:04.320Z,26.23
2023-03-17T15:04:04.332Z,26.30
2023-03-17T15:05:04.318Z,26.34
2023-03-17T15:06:04.340Z,26.19
2023-03-17T15:07:04.334Z,26.16
2023-03-17T15:08:04.333Z,26.19
2023-03-17T15:09:04.334Z,26.11
2023-03-17T15:10:04.326Z,26.00
2023-03-17T15:11:04.353Z,25.96
2023-03-17T15:12:04.326Z,25.96
2023-03-17T15:13:04.479Z,25.91
2023-03-17T15:14:04.326Z,25.91
2023-03-17T15:15:04.318Z,25.88
2023-03-17T15:16:04.337Z,25.85
2023-03-17T15:17:04.494Z,25.79
2023-03-17T15:18:04.338Z,25.76
2023-03-17T15:19:04.322Z,25.76
2023-03-17T15:20:04.317Z,25.66
2023-03-17T15:21:04.320Z,25.62
2023-03-17T15:22:04.329Z,25.64
2023-03-17T15:23:04.327Z,25.49
2023-03-17T15:24:04.342Z,25.44
2023-03-17T15:25:04.314Z,25.49
2023-03-17T15:26:04.317Z,25.39
2023-03-17T15:27:04.310Z,25.39
2023-03-17T15:28:04.324Z,25.39
2023-03-17T15:29:04.324Z,25.30
2023-03-17T15:30:04.311Z,25.24
2023-03-17T15:31:04.376Z,25.22
2023-03-17T15:32:04.303Z,25.15
2023-03-17T15:33:04.351Z,25.20
2023-03-17T15:34:04.300Z,25.08
2023-03-17T15:35:04.308Z,25.08
2023-03-17T15:36:04.392Z,25.00
2023-03-17T15:37:04.306Z,25.05
2023-03-17T15:38:04.288Z,25.00
2023-03-17T15:39:04.293Z,24.90
2023-03-17T15:40:04.309Z,24.90
2023-03-17T15:41:04.314Z,24.90
2023-03-17T15:42:04.293Z,24.74
2023-03-17T15:43:04.297Z,24.70
2023-03-17T15:44:05.302Z,24.74
2023-03-17T15:45:04.288Z,24.70
2023-03-17T15:46:04.369Z,24.63
2023-03-17T15:47:04.305Z,24.58
2023-03-17T15:48:04.301Z,24.54
2023-03-17T15:49:04.329Z,24.55
2023-03-17T15:50:04.349Z,24.45
2023-03-17T15:51:04.287Z,24.52
2023-03-17T15:52:04.324Z,24.46
2023-03-17T15:53:04.276Z,24.42
2023-03-17T15:54:04.285Z,24.42
2023-03-17T15:55:05.734Z,24.30
2023-03-17T15:56:04.279Z,24.30
2023-03-17T15:57:04.279Z,24.26
2023-03-17T15:58:04.292Z,24.22
2023-03-17T15:59:04.285Z,24.24
2023-03-17T16:00:04.410Z,24.17
2023-03-17T16:01:04.355Z,24.22
2023-03-17T16:12:42.454Z,23.72
2023-03-17T16:13:42.407Z,23.64
2023-03-17T16:14:42.397Z,23.64
2023-03-17T16:15:42.394Z,23.60
2023-03-17T16:16:42.409Z,23.60
2023-03-17T16:17:42.375Z,23.47
2023-03-17T16:18:42.394Z,23.42
2023-03-17T16:19:42.402Z,23.44
2023-03-17T16:20:42.402Z,23.37
2023-03-17T16:21:42.413Z,23.38
2023-03-17T16:22:42.356Z,23.35
2023-03-17T16:23:42.354Z,23.38
2023-03-17T16:24:42.372Z,23.26
2023-03-17T16:25:42.385Z,23.21
2023-03-17T16:26:42.351Z,23.29
2023-03-17T16:27:42.357Z,23.19
2023-03-17T16:28:42.418Z,23.21
2023-03-17T16:29:42.344Z,23.18
2023-03-17T16:30:42.357Z,23.09
2023-03-17T16:31:42.334Z,23.16
2023-03-17T16:32:42.360Z,23.07
2023-03-17T16:33:42.365Z,23.06
2023-03-17T16:34:42.335Z,23.06
2023-03-17T16:35:42.357Z,23.06
2023-03-17T16:36:42.322Z,23.04
2023-03-17T16:37:42.326Z,23.01
2023-03-17T16:38:42.345Z,23.00
2023-03-17T16:39:42.319Z,22.99
2023-03-17T16:40:42.304Z,22.94
2023-03-17T16:41:42.328Z,22.99
2023-03-17T16:42:42.307Z,22.94
2023-03-17T16:43:42.318Z,22.92
2023-03-17T16:44:42.396Z,22.86
2023-03-17T16:45:42.305Z,22.85
2023-03-17T16:46:42.309Z,22.78
2023-03-17T16:47:42.290Z,22.88
2023-03-17T16:48:42.328Z,22.78
2023-03-17T16:49:42.305Z,22.79
2023-03-17T16:50:42.290Z,22.84
2023-03-17T16:51:42.277Z,22.69
2023-03-17T16:52:42.305Z,22.82
2023-03-17T16:53:42.281Z,22.71
2023-03-17T16:54:42.291Z,22.76
2023-03-17T16:55:42.270Z,22.66
2023-03-17T16:56:42.419Z,22.69
2023-03-17T16:57:42.275Z,22.63
2023-03-17T16:58:42.295Z,22.57
2023-03-17T16:59:42.269Z,22.63
2023-03-17T17:00:42.281Z,22.66
2023-03-17T17:01:42.304Z,22.60
2023-03-17T17:02:42.303Z,22.60
2023-03-17T17:03:42.264Z,22.60
2023-03-17T17:04:42.265Z,22.60
2023-03-17T17:05:42.240Z,22.48
2023-03-17T17:06:42.260Z,22.46
2023-03-17T17:07:42.242Z,22.49
2023-03-17T17:08:42.229Z,22.49
2023-03-17T17:09:42.260Z,22.42
2023-03-17T17:10:42.238Z,22.44
2023-03-17T17:11:42.222Z,22.46
2023-03-17T17:12:42.225Z,22.41
2023-03-17T17:13:42.265Z,22.41
2023-03-17T17:14:42.227Z,22.44
2023-03-17T17:15:42.204Z,22.36
2023-03-17T17:16:42.277Z,22.34
2023-03-17T17:17:42.206Z,22.39
2023-03-17T17:18:42.224Z,22.34
2023-03-17T17:19:42.216Z,22.31
2023-03-17T17:20:42.190Z,22.23
2023-03-17T17:21:43.100Z,22.24
2023-03-17T17:22:42.193Z,22.30
2023-03-17T17:23:42.199Z,22.27
2023-03-17T17:24:42.196Z,22.20
2023-03-17T17:25:42.198Z,22.29